Mahanoy, Pennsylvania
Current Conditions -  °F | °C
As of 5:15 PM on Sunday 25 Jan 2015 (Local Time) from KHZL Reporting Station
Overcast Overcast  
Wind Chill: 23°   Ceiling: 3400
Heat Index: 30°   Visibility: 10mi
Dew Point: 12°   Wind: 7mph
Humidity: 47%   Direction: 10°N
Pressure: 29.81"   Gusts: NA
Location:  40.8208°N, 76.1672°W
Report Text: KHZL 252215Z AUTO 01006KT 10SM OVC034 M01/M11 A2981 RMK AO2
Loading
Personal Weather Stations






























Interactive Weather Map New forecast layout! Learn more

10-Day Weather Forecast

Advertisements
Track Severe Weather on mobile